sensor_id;sensor_type;location;lat;lon;timestamp;temperature;humidity
23633;DHT22;11993;48.748;9.166;2022-09-27T00:01:02;9.30;85.50
23633;DHT22;11993;48.748;9.166;2022-09-27T00:03:29;9.30;85.90
23633;DHT22;11993;48.748;9.166;2022-09-27T00:06:14;9.40;85.70
23633;DHT22;11993;48.748;9.166;2022-09-27T00:08:41;9.50;85.60
23633;DHT22;11993;48.748;9.166;2022-09-27T00:11:21;9.50;85.50
23633;DHT22;11993;48.748;9.166;2022-09-27T00:13:48;9.50;85.50
23633;DHT22;11993;48.748;9.166;2022-09-27T00:16:13;9.50;85.60
23633;DHT22;11993;48.748;9.166;2022-09-27T00:18:39;9.50;85.70
23633;DHT22;11993;48.748;9.166;2022-09-27T00:21:09;9.60;85.50
23633;DHT22;11993;48.748;9.166;2022-09-27T00:23:36;9.50;85.60
23633;DHT22;11993;48.748;9.166;2022-09-27T00:26:02;9.50;85.90
23633;DHT22;11993;48.748;9.166;2022-09-27T00:28:28;9.60;85.80
23633;DHT22;11993;48.748;9.166;2022-09-27T00:30:53;9.60;85.80
23633;DHT22;11993;48.748;9.166;2022-09-27T00:33:19;9.60;85.70
23633;DHT22;11993;48.748;9.166;2022-09-27T00:35:45;9.60;85.70
23633;DHT22;11993;48.748;9.166;2022-09-27T00:38:11;9.50;85.80
23633;DHT22;11993;48.748;9.166;2022-09-27T00:40:37;9.60;85.90
23633;DHT22;11993;48.748;9.166;2022-09-27T00:43:19;9.60;85.90
23633;DHT22;11993;48.748;9.166;2022-09-27T00:45:50;9.50;86.00
23633;DHT22;11993;48.748;9.166;2022-09-27T00:48:18;9.50;86.20
23633;DHT22;11993;48.748;9.166;2022-09-27T00:50:48;9.50;86.00
23633;DHT22;11993;48.748;9.166;2022-09-27T00:53:28;9.50;86.10
23633;DHT22;11993;48.748;9.166;2022-09-27T00:55:59;9.60;86.10
23633;DHT22;11993;48.748;9.166;2022-09-27T00:58:32;9.50;86.10
23633;DHT22;11993;48.748;9.166;2022-09-27T01:01:02;9.60;85.90
23633;DHT22;11993;48.748;9.166;2022-09-27T01:03:52;9.60;86.20
23633;DHT22;11993;48.748;9.166;2022-09-27T01:06:21;9.50;86.00
23633;DHT22;11993;48.748;9.166;2022-09-27T01:08:47;9.60;86.10
23633;DHT22;11993;48.748;9.166;2022-09-27T01:14:12;9.60;86.30
23633;DHT22;11993;48.748;9.166;2022-09-27T01:22:23;9.50;86.80
23633;DHT22;11993;48.748;9.166;2022-09-27T01:24:54;9.60;86.60
23633;DHT22;11993;48.748;9.166;2022-09-27T01:30:49;9.60;86.40
23633;DHT22;11993;48.748;9.166;2022-09-27T01:36:25;9.40;86.70
23633;DHT22;11993;48.748;9.166;2022-09-27T01:39:05;9.60;86.70
23633;DHT22;11993;48.748;9.166;2022-09-27T01:41:49;9.60;86.60
23633;DHT22;11993;48.748;9.166;2022-09-27T01:44:34;9.60;86.50
23633;DHT22;11993;48.748;9.166;2022-09-27T01:47:16;9.50;86.60
23633;DHT22;11993;48.748;9.166;2022-09-27T01:50:00;9.60;86.70
23633;DHT22;11993;48.748;9.166;2022-09-27T01:52:31;9.60;86.70
23633;DHT22;11993;48.748;9.166;2022-09-27T01:55:02;9.60;86.80
23633;DHT22;11993;48.748;9.166;2022-09-27T01:57:34;9.60;86.80
23633;DHT22;11993;48.748;9.166;2022-09-27T02:00:05;9.60;86.90
23633;DHT22;11993;48.748;9.166;2022-09-27T02:02:38;9.70;86.80
23633;DHT22;11993;48.748;9.166;2022-09-27T02:05:06;9.70;86.70
23633;DHT22;11993;48.748;9.166;2022-09-27T02:07:41;9.80;86.70
23633;DHT22;11993;48.748;9.166;2022-09-27T02:10:14;9.80;86.60
23633;DHT22;11993;48.748;9.166;2022-09-27T02:12:48;9.70;86.60
23633;DHT22;11993;48.748;9.166;2022-09-27T02:15:15;9.90;86.70
23633;DHT22;11993;48.748;9.166;2022-09-27T02:17:59;9.90;86.40
23633;DHT22;11993;48.748;9.166;2022-09-27T02:20:38;9.90;86.30
23633;DHT22;11993;48.748;9.166;2022-09-27T02:23:22;10.00;86.50
23633;DHT22;11993;48.748;9.166;2022-09-27T02:28:26;9.80;87.00
23633;DHT22;11993;48.748;9.166;2022-09-27T02:30:52;9.70;87.10
23633;DHT22;11993;48.748;9.166;2022-09-27T02:33:21;9.70;87.10
23633;DHT22;11993;48.748;9.166;2022-09-27T02:35:47;9.80;87.20
23633;DHT22;11993;48.748;9.166;2022-09-27T02:38:12;9.90;87.10
23633;DHT22;11993;48.748;9.166;2022-09-27T02:40:43;9.80;86.80
23633;DHT22;11993;48.748;9.166;2022-09-27T02:43:09;9.90;86.90
23633;DHT22;11993;48.748;9.166;2022-09-27T02:48:30;9.90;86.30
23633;DHT22;11993;48.748;9.166;2022-09-27T02:56:33;9.70;84.00
23633;DHT22;11993;48.748;9.166;2022-09-27T03:04:34;9.70;83.50
23633;DHT22;11993;48.748;9.166;2022-09-27T03:07:02;9.70;83.30
23633;DHT22;11993;48.748;9.166;2022-09-27T03:09:43;9.60;82.90
23633;DHT22;11993;48.748;9.166;2022-09-27T03:12:09;9.60;83.20
23633;DHT22;11993;48.748;9.166;2022-09-27T03:14:35;9.60;83.30
23633;DHT22;11993;48.748;9.166;2022-09-27T03:17:01;9.60;82.90
23633;DHT22;11993;48.748;9.166;2022-09-27T03:19:26;9.50;82.10
23633;DHT22;11993;48.748;9.166;2022-09-27T03:21:52;9.40;82.60
23633;DHT22;11993;48.748;9.166;2022-09-27T03:24:18;9.50;82.30
23633;DHT22;11993;48.748;9.166;2022-09-27T03:26:43;9.50;81.90
23633;DHT22;11993;48.748;9.166;2022-09-27T03:29:09;9.50;82.20
23633;DHT22;11993;48.748;9.166;2022-09-27T03:31:35;9.60;82.50
23633;DHT22;11993;48.748;9.166;2022-09-27T03:34:01;9.50;82.00
23633;DHT22;11993;48.748;9.166;2022-09-27T03:36:26;9.60;82.40
23633;DHT22;11993;48.748;9.166;2022-09-27T03:38:52;9.50;81.80
23633;DHT22;11993;48.748;9.166;2022-09-27T03:41:17;9.50;82.30
23633;DHT22;11993;48.748;9.166;2022-09-27T03:43:43;9.50;82.70
23633;DHT22;11993;48.748;9.166;2022-09-27T03:46:09;9.40;82.60
23633;DHT22;11993;48.748;9.166;2022-09-27T03:48:34;9.40;82.90
23633;DHT22;11993;48.748;9.166;2022-09-27T03:51:00;9.20;83.10
23633;DHT22;11993;48.748;9.166;2022-09-27T03:53:25;9.30;83.60
23633;DHT22;11993;48.748;9.166;2022-09-27T03:55:51;9.30;83.90
23633;DHT22;11993;48.748;9.166;2022-09-27T03:58:16;9.30;83.80
23633;DHT22;11993;48.748;9.166;2022-09-27T04:00:44;9.30;83.80
23633;DHT22;11993;48.748;9.166;2022-09-27T04:03:09;9.40;84.00
23633;DHT22;11993;48.748;9.166;2022-09-27T04:05:36;9.40;83.90
23633;DHT22;11993;48.748;9.166;2022-09-27T04:08:02;9.20;84.00
23633;DHT22;11993;48.748;9.166;2022-09-27T04:10:29;9.30;84.00
23633;DHT22;11993;48.748;9.166;2022-09-27T04:12:55;9.30;83.90
23633;DHT22;11993;48.748;9.166;2022-09-27T04:15:21;9.20;83.90
23633;DHT22;11993;48.748;9.166;2022-09-27T04:17:46;9.30;84.00
23633;DHT22;11993;48.748;9.166;2022-09-27T04:20:12;9.40;84.00
23633;DHT22;11993;48.748;9.166;2022-09-27T04:22:38;9.40;83.80
23633;DHT22;11993;48.748;9.166;2022-09-27T04:25:06;9.40;83.90
23633;DHT22;11993;48.748;9.166;2022-09-27T04:27:32;9.40;84.00
23633;DHT22;11993;48.748;9.166;2022-09-27T04:29:57;9.40;83.90
23633;DHT22;11993;48.748;9.166;2022-09-27T04:32:23;9.40;83.80
23633;DHT22;11993;48.748;9.166;2022-09-27T04:34:49;9.30;83.50
23633;DHT22;11993;48.748;9.166;2022-09-27T04:37:33;9.30;83.90
23633;DHT22;11993;48.748;9.166;2022-09-27T04:39:59;9.20;84.20
23633;DHT22;11993;48.748;9.166;2022-09-27T04:42:24;9.20;84.60
23633;DHT22;11993;48.748;9.166;2022-09-27T04:44:50;9.20;84.70
23633;DHT22;11993;48.748;9.166;2022-09-27T04:47:16;9.10;84.90
23633;DHT22;11993;48.748;9.166;2022-09-27T04:49:42;9.10;85.00
23633;DHT22;11993;48.748;9.166;2022-09-27T04:52:08;9.10;85.00
23633;DHT22;11993;48.748;9.166;2022-09-27T04:54:33;9.20;85.10
23633;DHT22;11993;48.748;9.166;2022-09-27T04:56:59;9.20;85.20
23633;DHT22;11993;48.748;9.166;2022-09-27T04:59:25;9.30;84.80
23633;DHT22;11993;48.748;9.166;2022-09-27T05:01:51;9.20;84.80
23633;DHT22;11993;48.748;9.166;2022-09-27T05:04:17;9.30;84.80
23633;DHT22;11993;48.748;9.166;2022-09-27T05:06:43;9.30;84.70
23633;DHT22;11993;48.748;9.166;2022-09-27T05:09:08;9.30;84.70
23633;DHT22;11993;48.748;9.166;2022-09-27T05:11:34;9.40;84.70
23633;DHT22;11993;48.748;9.166;2022-09-27T05:14:03;9.50;84.80
23633;DHT22;11993;48.748;9.166;2022-09-27T05:16:28;9.60;84.60
23633;DHT22;11993;48.748;9.166;2022-09-27T05:18:54;9.60;84.50
23633;DHT22;11993;48.748;9.166;2022-09-27T05:21:19;9.50;84.60
23633;DHT22;11993;48.748;9.166;2022-09-27T05:23:45;9.40;84.50
23633;DHT22;11993;48.748;9.166;2022-09-27T05:26:10;9.40;84.60
23633;DHT22;11993;48.748;9.166;2022-09-27T05:28:36;9.50;84.70
23633;DHT22;11993;48.748;9.166;2022-09-27T05:31:02;9.40;84.50
23633;DHT22;11993;48.748;9.166;2022-09-27T05:33:27;9.50;84.80
23633;DHT22;11993;48.748;9.166;2022-09-27T05:35:56;9.60;84.20
23633;DHT22;11993;48.748;9.166;2022-09-27T05:38:23;9.60;84.10
23633;DHT22;11993;48.748;9.166;2022-09-27T05:40:50;9.60;84.20
23633;DHT22;11993;48.748;9.166;2022-09-27T05:43:17;9.70;83.60
23633;DHT22;11993;48.748;9.166;2022-09-27T05:45:43;9.70;83.60
23633;DHT22;11993;48.748;9.166;2022-09-27T05:48:09;9.70;84.00
23633;DHT22;11993;48.748;9.166;2022-09-27T05:50:40;9.70;84.00
23633;DHT22;11993;48.748;9.166;2022-09-27T05:53:06;9.60;84.10
23633;DHT22;11993;48.748;9.166;2022-09-27T05:55:31;9.60;84.30
23633;DHT22;11993;48.748;9.166;2022-09-27T05:57:59;9.70;84.60
23633;DHT22;11993;48.748;9.166;2022-09-27T06:00:26;9.70;84.60
23633;DHT22;11993;48.748;9.166;2022-09-27T06:02:56;9.70;84.60
23633;DHT22;11993;48.748;9.166;2022-09-27T06:05:22;9.60;84.60
23633;DHT22;11993;48.748;9.166;2022-09-27T06:07:48;9.60;84.30
23633;DHT22;11993;48.748;9.166;2022-09-27T06:10:15;9.60;84.20
23633;DHT22;11993;48.748;9.166;2022-09-27T06:12:40;9.50;84.20
23633;DHT22;11993;48.748;9.166;2022-09-27T06:15:06;9.50;84.20
23633;DHT22;11993;48.748;9.166;2022-09-27T06:17:35;9.30;84.30
23633;DHT22;11993;48.748;9.166;2022-09-27T06:20:02;9.30;84.70
23633;DHT22;11993;48.748;9.166;2022-09-27T06:22:27;9.40;84.80
23633;DHT22;11993;48.748;9.166;2022-09-27T06:24:53;9.40;84.50
23633;DHT22;11993;48.748;9.166;2022-09-27T06:27:19;9.40;84.70
23633;DHT22;11993;48.748;9.166;2022-09-27T06:29:44;9.40;84.30
23633;DHT22;11993;48.748;9.166;2022-09-27T06:32:11;9.40;84.20
23633;DHT22;11993;48.748;9.166;2022-09-27T06:34:37;9.50;84.20
23633;DHT22;11993;48.748;9.166;2022-09-27T06:37:03;9.50;84.10
23633;DHT22;11993;48.748;9.166;2022-09-27T06:39:31;9.60;84.10
23633;DHT22;11993;48.748;9.166;2022-09-27T06:41:58;9.70;84.20
23633;DHT22;11993;48.748;9.166;2022-09-27T06:44:24;9.80;83.60
23633;DHT22;11993;48.748;9.166;2022-09-27T06:46:50;9.80;83.30
23633;DHT22;11993;48.748;9.166;2022-09-27T06:49:17;9.80;83.50
23633;DHT22;11993;48.748;9.166;2022-09-27T06:51:43;9.70;83.00
23633;DHT22;11993;48.748;9.166;2022-09-27T06:54:08;9.60;82.20
23633;DHT22;11993;48.748;9.166;2022-09-27T06:56:34;9.70;82.30
23633;DHT22;11993;48.748;9.166;2022-09-27T06:58:59;9.60;82.30
23633;DHT22;11993;48.748;9.166;2022-09-27T07:01:43;9.70;82.40
23633;DHT22;11993;48.748;9.166;2022-09-27T07:04:10;9.80;81.90
23633;DHT22;11993;48.748;9.166;2022-09-27T07:06:36;9.80;82.00
23633;DHT22;11993;48.748;9.166;2022-09-27T07:09:02;9.80;82.40
23633;DHT22;11993;48.748;9.166;2022-09-27T07:11:27;9.90;82.10
23633;DHT22;11993;48.748;9.166;2022-09-27T07:13:53;10.00;81.60
23633;DHT22;11993;48.748;9.166;2022-09-27T07:16:19;10.20;81.70
23633;DHT22;11993;48.748;9.166;2022-09-27T07:18:46;10.20;80.70
23633;DHT22;11993;48.748;9.166;2022-09-27T07:21:12;10.10;80.40
23633;DHT22;11993;48.748;9.166;2022-09-27T07:23:40;10.00;80.10
23633;DHT22;11993;48.748;9.166;2022-09-27T07:26:06;10.00;80.20
23633;DHT22;11993;48.748;9.166;2022-09-27T07:28:33;9.90;80.80
23633;DHT22;11993;48.748;9.166;2022-09-27T07:30:59;9.70;80.00
23633;DHT22;11993;48.748;9.166;2022-09-27T07:33:25;10.00;80.10
23633;DHT22;11993;48.748;9.166;2022-09-27T07:35:50;10.00;79.50
23633;DHT22;11993;48.748;9.166;2022-09-27T07:38:16;10.00;79.50
23633;DHT22;11993;48.748;9.166;2022-09-27T07:40:42;10.00;79.60
23633;DHT22;11993;48.748;9.166;2022-09-27T07:43:08;10.00;80.30
23633;DHT22;11993;48.748;9.166;2022-09-27T07:45:34;10.10;80.40
23633;DHT22;11993;48.748;9.166;2022-09-27T07:48:03;10.10;80.00
23633;DHT22;11993;48.748;9.166;2022-09-27T07:50:29;10.20;80.10
23633;DHT22;11993;48.748;9.166;2022-09-27T07:52:55;10.20;80.50
23633;DHT22;11993;48.748;9.166;2022-09-27T07:55:21;10.20;80.50
23633;DHT22;11993;48.748;9.166;2022-09-27T07:57:48;10.20;79.40
23633;DHT22;11993;48.748;9.166;2022-09-27T08:00:16;10.30;80.40
23633;DHT22;11993;48.748;9.166;2022-09-27T08:02:43;10.20;78.60
23633;DHT22;11993;48.748;9.166;2022-09-27T08:05:09;10.60;78.30
23633;DHT22;11993;48.748;9.166;2022-09-27T08:07:35;11.00;78.40
23633;DHT22;11993;48.748;9.166;2022-09-27T08:10:01;11.10;77.50
23633;DHT22;11993;48.748;9.166;2022-09-27T08:12:26;11.20;77.20
23633;DHT22;11993;48.748;9.166;2022-09-27T08:14:52;11.20;77.10
23633;DHT22;11993;48.748;9.166;2022-09-27T08:17:17;11.40;76.30
23633;DHT22;11993;48.748;9.166;2022-09-27T08:19:46;11.40;75.90
23633;DHT22;11993;48.748;9.166;2022-09-27T08:22:14;11.40;76.10
23633;DHT22;11993;48.748;9.166;2022-09-27T08:24:41;11.60;76.60
23633;DHT22;11993;48.748;9.166;2022-09-27T08:27:06;11.70;74.40
23633;DHT22;11993;48.748;9.166;2022-09-27T08:29:33;11.80;74.30
23633;DHT22;11993;48.748;9.166;2022-09-27T08:31:59;11.90;73.50
23633;DHT22;11993;48.748;9.166;2022-09-27T08:34:25;11.80;73.90
23633;DHT22;11993;48.748;9.166;2022-09-27T08:36:52;11.70;72.70
23633;DHT22;11993;48.748;9.166;2022-09-27T08:39:20;12.00;73.50
23633;DHT22;11993;48.748;9.166;2022-09-27T08:44:52;11.60;73.20
23633;DHT22;11993;48.748;9.166;2022-09-27T08:52:59;11.00;74.00
23633;DHT22;11993;48.748;9.166;2022-09-27T08:55:35;10.80;74.40
23633;DHT22;11993;48.748;9.166;2022-09-27T08:58:08;10.60;74.50
23633;DHT22;11993;48.748;9.166;2022-09-27T09:00:35;10.60;74.10
23633;DHT22;11993;48.748;9.166;2022-09-27T09:03:01;10.60;74.60
23633;DHT22;11993;48.748;9.166;2022-09-27T09:05:32;10.60;73.90
23633;DHT22;11993;48.748;9.166;2022-09-27T09:10:55;10.90;74.60
23633;DHT22;11993;48.748;9.166;2022-09-27T09:16:34;11.60;73.00
23633;DHT22;11993;48.748;9.166;2022-09-27T09:21:52;11.40;71.30
23633;DHT22;11993;48.748;9.166;2022-09-27T09:30:04;11.60;68.30
23633;DHT22;11993;48.748;9.166;2022-09-27T09:32:59;12.40;68.90
23633;DHT22;11993;48.748;9.166;2022-09-27T09:41:02;12.60;65.20
23633;DHT22;11993;48.748;9.166;2022-09-27T09:43:58;12.90;66.00
23633;DHT22;11993;48.748;9.166;2022-09-27T09:46:37;13.00;65.30
23633;DHT22;11993;48.748;9.166;2022-09-27T09:51:43;13.60;64.90
23633;DHT22;11993;48.748;9.166;2022-09-27T09:54:21;13.60;63.60
23633;DHT22;11993;48.748;9.166;2022-09-27T09:56:54;13.70;63.00
23633;DHT22;11993;48.748;9.166;2022-09-27T09:59:27;12.90;61.50
23633;DHT22;11993;48.748;9.166;2022-09-27T10:01:57;12.90;61.10
23633;DHT22;11993;48.748;9.166;2022-09-27T10:04:32;13.30;60.20
23633;DHT22;11993;48.748;9.166;2022-09-27T10:06:59;12.70;60.60
23633;DHT22;11993;48.748;9.166;2022-09-27T10:09:26;12.40;62.20
23633;DHT22;11993;48.748;9.166;2022-09-27T10:11:52;12.60;62.20
23633;DHT22;11993;48.748;9.166;2022-09-27T10:14:20;13.30;62.70
23633;DHT22;11993;48.748;9.166;2022-09-27T10:16:48;13.40;59.50
23633;DHT22;11993;48.748;9.166;2022-09-27T10:19:22;13.60;59.40
23633;DHT22;11993;48.748;9.166;2022-09-27T10:21:51;13.90;59.00
23633;DHT22;11993;48.748;9.166;2022-09-27T10:24:17;13.30;60.20
23633;DHT22;11993;48.748;9.166;2022-09-27T10:26:45;13.10;60.60
23633;DHT22;11993;48.748;9.166;2022-09-27T10:31:46;12.60;62.20
23633;DHT22;11993;48.748;9.166;2022-09-27T10:34:33;12.50;62.60
23633;DHT22;11993;48.748;9.166;2022-09-27T10:39:40;12.40;63.10
23633;DHT22;11993;48.748;9.166;2022-09-27T10:42:32;12.40;63.30
23633;DHT22;11993;48.748;9.166;2022-09-27T10:47:46;12.90;62.60
23633;DHT22;11993;48.748;9.166;2022-09-27T10:50:21;12.70;61.50
23633;DHT22;11993;48.748;9.166;2022-09-27T10:53:12;12.60;62.40
23633;DHT22;11993;48.748;9.166;2022-09-27T10:55:39;12.50;62.80
23633;DHT22;11993;48.748;9.166;2022-09-27T10:58:13;12.40;62.80
23633;DHT22;11993;48.748;9.166;2022-09-27T11:00:40;12.50;63.40
23633;DHT22;11993;48.748;9.166;2022-09-27T11:03:12;12.60;63.90
23633;DHT22;11993;48.748;9.166;2022-09-27T11:05:39;12.40;64.60
23633;DHT22;11993;48.748;9.166;2022-09-27T11:10:43;12.00;65.30
23633;DHT22;11993;48.748;9.166;2022-09-27T11:13:19;12.00;65.10
23633;DHT22;11993;48.748;9.166;2022-09-27T11:16:13;12.10;64.30
23633;DHT22;11993;48.748;9.166;2022-09-27T11:35:35;12.00;62.40
23633;DHT22;11993;48.748;9.166;2022-09-27T11:41:18;12.20;62.50
23633;DHT22;11993;48.748;9.166;2022-09-27T11:43:48;12.20;63.30
23633;DHT22;11993;48.748;9.166;2022-09-27T11:52:15;12.10;64.40
23633;DHT22;11993;48.748;9.166;2022-09-27T11:55:14;12.10;65.20
23633;DHT22;11993;48.748;9.166;2022-09-27T12:00:46;12.30;65.60
23633;DHT22;11993;48.748;9.166;2022-09-27T12:06:04;12.50;66.40
23633;DHT22;11993;48.748;9.166;2022-09-27T12:11:25;12.40;66.50
23633;DHT22;11993;48.748;9.166;2022-09-27T12:14:18;11.90;66.70
23633;DHT22;11993;48.748;9.166;2022-09-27T12:16:42;12.00;67.60
23633;DHT22;11993;48.748;9.166;2022-09-27T12:19:18;12.10;67.50
23633;DHT22;11993;48.748;9.166;2022-09-27T12:21:46;11.90;69.10
23633;DHT22;11993;48.748;9.166;2022-09-27T12:24:19;11.90;69.90
23633;DHT22;11993;48.748;9.166;2022-09-27T12:26:47;12.10;69.50
23633;DHT22;11993;48.748;9.166;2022-09-27T12:32:07;11.50;70.80
23633;DHT22;11993;48.748;9.166;2022-09-27T12:34:53;11.40;70.80
23633;DHT22;11993;48.748;9.166;2022-09-27T12:37:24;11.50;71.50
23633;DHT22;11993;48.748;9.166;2022-09-27T12:40:06;11.60;72.90
23633;DHT22;11993;48.748;9.166;2022-09-27T12:42:40;11.60;72.30
23633;DHT22;11993;48.748;9.166;2022-09-27T12:45:11;11.70;72.70
23633;DHT22;11993;48.748;9.166;2022-09-27T12:50:29;12.00;73.00
23633;DHT22;11993;48.748;9.166;2022-09-27T12:53:16;12.30;73.30
23633;DHT22;11993;48.748;9.166;2022-09-27T12:56:20;12.20;69.90
23633;DHT22;11993;48.748;9.166;2022-09-27T13:05:07;12.80;72.70
23633;DHT22;11993;48.748;9.166;2022-09-27T13:13:02;13.60;66.30
23633;DHT22;11993;48.748;9.166;2022-09-27T13:15:31;13.20;66.90
23633;DHT22;11993;48.748;9.166;2022-09-27T13:17:59;13.00;68.90
23633;DHT22;11993;48.748;9.166;2022-09-27T13:28:32;12.40;70.30
23633;DHT22;11993;48.748;9.166;2022-09-27T13:31:02;12.20;71.10
23633;DHT22;11993;48.748;9.166;2022-09-27T13:33:31;12.10;70.60
23633;DHT22;11993;48.748;9.166;2022-09-27T13:44:21;12.90;70.40
23633;DHT22;11993;48.748;9.166;2022-09-27T13:46:56;12.70;71.50
23633;DHT22;11993;48.748;9.166;2022-09-27T13:49:25;12.60;69.50
23633;DHT22;11993;48.748;9.166;2022-09-27T13:52:01;12.60;69.30
23633;DHT22;11993;48.748;9.166;2022-09-27T13:56:59;12.10;69.90
23633;DHT22;11993;48.748;9.166;2022-09-27T13:59:53;11.60;71.80
23633;DHT22;11993;48.748;9.166;2022-09-27T14:02:26;11.80;71.00
23633;DHT22;11993;48.748;9.166;2022-09-27T14:04:55;11.70;70.90
23633;DHT22;11993;48.748;9.166;2022-09-27T14:07:25;12.00;72.70
23633;DHT22;11993;48.748;9.166;2022-09-27T14:09:53;12.10;73.30
23633;DHT22;11993;48.748;9.166;2022-09-27T14:12:24;12.00;74.30
23633;DHT22;11993;48.748;9.166;2022-09-27T14:14:53;12.00;74.50
23633;DHT22;11993;48.748;9.166;2022-09-27T14:17:20;11.90;76.20
23633;DHT22;11993;48.748;9.166;2022-09-27T14:19:47;11.70;77.10
23633;DHT22;11993;48.748;9.166;2022-09-27T14:22:20;11.60;77.40
23633;DHT22;11993;48.748;9.166;2022-09-27T14:24:47;11.50;77.40
23633;DHT22;11993;48.748;9.166;2022-09-27T14:27:23;11.30;77.70
23633;DHT22;11993;48.748;9.166;2022-09-27T14:32:17;11.20;78.80
23633;DHT22;11993;48.748;9.166;2022-09-27T14:34:44;11.10;78.80
23633;DHT22;11993;48.748;9.166;2022-09-27T14:37:19;11.10;79.50
23633;DHT22;11993;48.748;9.166;2022-09-27T14:39:56;11.20;79.20
23633;DHT22;11993;48.748;9.166;2022-09-27T14:42:25;11.30;79.20
23633;DHT22;11993;48.748;9.166;2022-09-27T14:45:05;11.40;78.10
23633;DHT22;11993;48.748;9.166;2022-09-27T14:47:31;11.50;77.30
23633;DHT22;11993;48.748;9.166;2022-09-27T14:50:00;11.70;77.30
23633;DHT22;11993;48.748;9.166;2022-09-27T14:52:28;11.60;76.70
23633;DHT22;11993;48.748;9.166;2022-09-27T14:55:06;11.40;76.30
23633;DHT22;11993;48.748;9.166;2022-09-27T14:57:33;11.30;76.20
23633;DHT22;11993;48.748;9.166;2022-09-27T15:00:28;11.50;76.80
23633;DHT22;11993;48.748;9.166;2022-09-27T15:02:57;11.60;77.20
23633;DHT22;11993;48.748;9.166;2022-09-27T15:05:27;11.70;77.70
23633;DHT22;11993;48.748;9.166;2022-09-27T15:07:54;12.10;77.00
23633;DHT22;11993;48.748;9.166;2022-09-27T15:10:24;11.90;73.80
23633;DHT22;11993;48.748;9.166;2022-09-27T15:12:53;11.80;71.90
23633;DHT22;11993;48.748;9.166;2022-09-27T15:15:24;11.70;72.80
23633;DHT22;11993;48.748;9.166;2022-09-27T15:17:50;11.40;71.70
23633;DHT22;11993;48.748;9.166;2022-09-27T15:20:27;11.30;71.80
23633;DHT22;11993;48.748;9.166;2022-09-27T15:22:55;11.00;69.50
23633;DHT22;11993;48.748;9.166;2022-09-27T15:25:42;11.00;69.10
23633;DHT22;11993;48.748;9.166;2022-09-27T15:28:21;11.10;69.20
23633;DHT22;11993;48.748;9.166;2022-09-27T15:30:55;11.10;69.40
23633;DHT22;11993;48.748;9.166;2022-09-27T15:33:24;11.10;69.20
23633;DHT22;11993;48.748;9.166;2022-09-27T15:35:53;11.10;69.20
23633;DHT22;11993;48.748;9.166;2022-09-27T15:38:45;11.20;70.90
23633;DHT22;11993;48.748;9.166;2022-09-27T15:41:18;11.30;70.60
23633;DHT22;11993;48.748;9.166;2022-09-27T15:43:49;11.30;72.20
23633;DHT22;11993;48.748;9.166;2022-09-27T15:49:17;11.40;73.70
23633;DHT22;11993;48.748;9.166;2022-09-27T15:51:48;11.40;73.60
23633;DHT22;11993;48.748;9.166;2022-09-27T15:54:18;11.30;72.30
23633;DHT22;11993;48.748;9.166;2022-09-27T15:56:46;11.20;70.10
23633;DHT22;11993;48.748;9.166;2022-09-27T15:59:19;11.20;67.90
23633;DHT22;11993;48.748;9.166;2022-09-27T16:01:45;11.20;68.70
23633;DHT22;11993;48.748;9.166;2022-09-27T16:04:12;11.40;69.80
23633;DHT22;11993;48.748;9.166;2022-09-27T16:06:37;11.50;70.50
23633;DHT22;11993;48.748;9.166;2022-09-27T16:09:03;11.50;69.20
23633;DHT22;11993;48.748;9.166;2022-09-27T16:11:29;11.40;67.00
23633;DHT22;11993;48.748;9.166;2022-09-27T16:13:54;11.20;66.60
23633;DHT22;11993;48.748;9.166;2022-09-27T16:16:21;11.10;65.10
23633;DHT22;11993;48.748;9.166;2022-09-27T16:18:47;11.10;64.70
23633;DHT22;11993;48.748;9.166;2022-09-27T16:21:13;10.90;64.20
23633;DHT22;11993;48.748;9.166;2022-09-27T16:23:39;10.70;64.10
23633;DHT22;11993;48.748;9.166;2022-09-27T16:26:06;10.80;64.00
23633;DHT22;11993;48.748;9.166;2022-09-27T16:28:32;10.70;63.60
23633;DHT22;11993;48.748;9.166;2022-09-27T16:31:05;10.60;64.20
23633;DHT22;11993;48.748;9.166;2022-09-27T16:33:32;10.60;64.20
23633;DHT22;11993;48.748;9.166;2022-09-27T16:35:58;10.50;65.40
23633;DHT22;11993;48.748;9.166;2022-09-27T16:38:27;10.50;65.80
23633;DHT22;11993;48.748;9.166;2022-09-27T16:40:59;10.50;66.10
23633;DHT22;11993;48.748;9.166;2022-09-27T16:43:26;10.40;67.20
23633;DHT22;11993;48.748;9.166;2022-09-27T16:45:52;10.40;67.60
23633;DHT22;11993;48.748;9.166;2022-09-27T16:48:19;10.30;67.60
23633;DHT22;11993;48.748;9.166;2022-09-27T16:50:44;10.20;67.40
23633;DHT22;11993;48.748;9.166;2022-09-27T16:53:28;10.20;67.60
23633;DHT22;11993;48.748;9.166;2022-09-27T16:55:58;10.20;67.80
23633;DHT22;11993;48.748;9.166;2022-09-27T16:58:23;10.20;68.00
23633;DHT22;11993;48.748;9.166;2022-09-27T17:00:49;10.20;68.10
23633;DHT22;11993;48.748;9.166;2022-09-27T17:03:14;10.20;68.30
23633;DHT22;11993;48.748;9.166;2022-09-27T17:05:40;10.20;68.60
23633;DHT22;11993;48.748;9.166;2022-09-27T17:08:06;10.20;68.10
23633;DHT22;11993;48.748;9.166;2022-09-27T17:10:31;10.20;68.70
23633;DHT22;11993;48.748;9.166;2022-09-27T17:12:57;10.20;68.60
23633;DHT22;11993;48.748;9.166;2022-09-27T17:15:22;10.10;69.30
23633;DHT22;11993;48.748;9.166;2022-09-27T17:17:49;10.10;69.40
23633;DHT22;11993;48.748;9.166;2022-09-27T17:20:14;10.10;69.70
23633;DHT22;11993;48.748;9.166;2022-09-27T17:22:40;10.00;69.40
23633;DHT22;11993;48.748;9.166;2022-09-27T17:25:06;10.00;69.90
23633;DHT22;11993;48.748;9.166;2022-09-27T17:27:31;9.80;70.50
23633;DHT22;11993;48.748;9.166;2022-09-27T17:29:57;9.80;70.90
23633;DHT22;11993;48.748;9.166;2022-09-27T17:32:22;9.80;70.90
23633;DHT22;11993;48.748;9.166;2022-09-27T17:34:49;9.70;71.50
23633;DHT22;11993;48.748;9.166;2022-09-27T17:37:15;9.80;71.50
23633;DHT22;11993;48.748;9.166;2022-09-27T17:39:41;9.70;72.30
23633;DHT22;11993;48.748;9.166;2022-09-27T17:42:07;9.60;72.90
23633;DHT22;11993;48.748;9.166;2022-09-27T17:44:33;9.60;73.10
23633;DHT22;11993;48.748;9.166;2022-09-27T17:46:59;9.60;73.40
23633;DHT22;11993;48.748;9.166;2022-09-27T17:49:43;9.60;73.40
23633;DHT22;11993;48.748;9.166;2022-09-27T17:52:27;9.60;73.60
23633;DHT22;11993;48.748;9.166;2022-09-27T17:54:56;9.60;73.90
23633;DHT22;11993;48.748;9.166;2022-09-27T17:57:23;9.60;74.00
23633;DHT22;11993;48.748;9.166;2022-09-27T17:59:49;9.60;74.40
23633;DHT22;11993;48.748;9.166;2022-09-27T18:02:15;9.50;74.90
23633;DHT22;11993;48.748;9.166;2022-09-27T18:04:40;9.60;75.20
23633;DHT22;11993;48.748;9.166;2022-09-27T18:07:06;9.40;75.40
23633;DHT22;11993;48.748;9.166;2022-09-27T18:09:32;9.50;76.20
23633;DHT22;11993;48.748;9.166;2022-09-27T18:11:59;9.40;76.70
23633;DHT22;11993;48.748;9.166;2022-09-27T18:14:24;9.50;76.90
23633;DHT22;11993;48.748;9.166;2022-09-27T18:16:51;9.30;77.20
23633;DHT22;11993;48.748;9.166;2022-09-27T18:19:18;9.20;77.40
23633;DHT22;11993;48.748;9.166;2022-09-27T18:21:44;9.10;78.10